Terminal Aerodrome Forecast
Issued by NWS Albany, NY

Home | Current Version | Previous Version | Text Only | Print | Product List | Glossary On
Versions: 1 2 3 4 5 6 7 8 9 10 11 12 13 14 15 16 17 18 19
000
FTUS41 KALY 232338
TAFALB
TAF
KALB 232338Z 2400/2424 19009KT P6SM VCSH SCT050 BKN090
     FM240300 19008KT P6SM VCSH OVC045
      TEMPO 2403/2406 3SM -SHRA BR OVC025
     FM240600 22007KT 5SM -SHRA BR OVC025
     FM241100 27008KT 4SM -SHRA BR SCT008 OVC020
     FM241500 28011G18KT P6SM SCT020 OVC040
     FM241800 29015G23KT P6SM SCT040 SCT250=

USA.gov is the U.S. government's official web portal to all federal, state and local government web resources and services.